Weather at Eastern Flying Club Airport

Public forecast

Using degrees Celsius for public forecast. Weather courtesy of forecast.io.

Closest aviation weather report (METAR) to Eastern Flying Club Airport

Closest report is U-Tapao International Airport, 14.0 nm (25.9 km) SSE.

2024/04/13 00:30 (retrieved 16 minutes ago)

VTBU 130030Z 22004KT 7000 FEW020 29/26 Q1011 NOSIG

Closest aviation forecast (TAF) to Eastern Flying Club Airport

Forecast is more than 12 hours old.

Closest forecast is Car Nicobar Air Force Base, 528.4 nm (978.6 km) WSW.

2024/04/12 12:00 (retrieved 13 hours ago)

TAF VOCX 120930Z 1212/1224 07010KT 6000 SCT018 SCT200 TEMPO 1212/1215 6000 RA SCT018 BKN200